createdAt,value
2018-12-12T00:01:13.321Z,14.23
2018-12-12T00:03:41.452Z,14.30
2018-12-12T00:06:09.607Z,15.60
2018-12-12T00:08:37.789Z,15.23
2018-12-12T00:11:06.109Z,15.93
2018-12-12T00:13:35.277Z,14.47
2018-12-12T00:16:03.446Z,12.90
2018-12-12T00:18:31.561Z,13.77
2018-12-12T00:20:59.740Z,15.97
2018-12-12T00:23:27.864Z,19.67
2018-12-12T00:25:56.039Z,33.15
2018-12-12T00:28:24.213Z,19.87
2018-12-12T00:30:53.514Z,14.93
2018-12-12T00:33:21.730Z,11.03
2018-12-12T00:35:49.937Z,10.37
2018-12-12T00:38:18.065Z,16.17
2018-12-12T00:40:46.210Z,14.40
2018-12-12T00:43:14.370Z,13.33
2018-12-12T00:45:42.541Z,10.90
2018-12-12T00:48:10.694Z,16.60
2018-12-12T00:50:38.830Z,12.13
2018-12-12T00:53:07.081Z,12.00
2018-12-12T00:55:35.234Z,13.03
2018-12-12T00:58:03.742Z,9.47
2018-12-12T01:00:32.142Z,12.87
2018-12-12T01:03:00.270Z,13.80
2018-12-12T01:05:28.445Z,17.70
2018-12-12T01:07:56.699Z,13.17
2018-12-12T01:10:25.197Z,12.98
2018-12-12T01:12:53.384Z,13.97
2018-12-12T01:15:21.575Z,14.13
2018-12-12T01:17:49.743Z,12.47
2018-12-12T01:20:17.904Z,12.10
2018-12-12T01:22:46.109Z,16.77
2018-12-12T01:25:14.272Z,12.30
2018-12-12T01:27:42.414Z,12.03
2018-12-12T01:30:10.556Z,12.10
2018-12-12T01:32:38.796Z,17.92
2018-12-12T01:35:07.020Z,15.57
2018-12-12T01:37:35.150Z,15.30
2018-12-12T01:40:03.438Z,10.70
2018-12-12T01:42:31.597Z,14.80
2018-12-12T01:44:59.767Z,13.18
2018-12-12T01:47:28.077Z,24.73
2018-12-12T01:49:56.722Z,14.47
2018-12-12T01:52:24.855Z,16.00
2018-12-12T01:54:52.990Z,13.13
2018-12-12T01:57:21.160Z,11.87
2018-12-12T01:59:49.382Z,9.80
2018-12-12T02:02:17.522Z,13.37
2018-12-12T02:04:45.767Z,15.10
2018-12-12T02:07:13.922Z,11.73
2018-12-12T02:09:42.194Z,13.32
2018-12-12T02:12:10.346Z,12.73
2018-12-12T02:14:38.482Z,13.72
2018-12-12T02:17:06.606Z,11.25
2018-12-12T02:19:34.831Z,15.10
2018-12-12T02:22:02.977Z,11.97
2018-12-12T02:24:31.097Z,13.40
2018-12-12T02:26:59.256Z,12.90
2018-12-12T02:29:28.398Z,11.03
2018-12-12T02:31:56.577Z,13.60
2018-12-12T02:34:24.698Z,7.67
2018-12-12T02:36:52.851Z,13.10
2018-12-12T02:39:20.982Z,11.23
2018-12-12T02:41:49.122Z,16.17
2018-12-12T02:44:17.277Z,14.17
2018-12-12T02:46:45.427Z,8.03
2018-12-12T02:49:13.541Z,16.62
2018-12-12T02:51:41.673Z,13.70
2018-12-12T02:54:09.801Z,13.10
2018-12-12T02:56:37.951Z,9.33
2018-12-12T02:59:06.085Z,14.97
2018-12-12T03:01:34.210Z,15.55
2018-12-12T03:04:02.369Z,14.37
2018-12-12T03:06:30.502Z,12.10
2018-12-12T03:08:58.634Z,19.80
2018-12-12T03:11:26.783Z,13.93
2018-12-12T03:13:54.998Z,15.27
2018-12-12T03:16:23.235Z,15.00
2018-12-12T03:18:53.290Z,17.05
2018-12-12T03:21:21.430Z,15.65
2018-12-12T03:23:49.604Z,17.15
2018-12-12T03:26:17.902Z,16.67
2018-12-12T03:28:46.063Z,14.20
2018-12-12T03:31:14.207Z,13.20
2018-12-12T03:33:42.345Z,11.87
2018-12-12T03:36:10.563Z,22.03
2018-12-12T03:38:38.686Z,15.77
2018-12-12T03:41:07.011Z,15.03
2018-12-12T03:43:35.130Z,18.40
2018-12-12T03:46:03.501Z,12.60
2018-12-12T03:48:31.757Z,16.93
2018-12-12T03:51:00.058Z,11.30
2018-12-12T03:53:28.339Z,13.93
2018-12-12T03:55:56.536Z,16.30
2018-12-12T03:58:24.693Z,13.33
2018-12-12T04:00:52.940Z,11.40
2018-12-12T04:03:21.091Z,13.50
2018-12-12T04:05:49.238Z,8.90
2018-12-12T04:08:17.424Z,11.15
2018-12-12T04:10:45.561Z,11.48
2018-12-12T04:13:13.733Z,11.95
2018-12-12T04:15:42.691Z,14.70
2018-12-12T04:18:10.900Z,19.07
2018-12-12T04:20:39.206Z,11.03
2018-12-12T04:23:07.354Z,10.87
2018-12-12T04:25:35.486Z,22.90
2018-12-12T04:28:03.657Z,17.10
2018-12-12T04:30:31.795Z,10.53
2018-12-12T04:33:00.146Z,16.70
2018-12-12T04:35:28.328Z,13.97
2018-12-12T04:37:56.570Z,11.73
2018-12-12T04:40:24.721Z,16.77
2018-12-12T04:42:52.871Z,9.70
2018-12-12T04:45:21.294Z,18.43
2018-12-12T04:47:50.964Z,11.80
2018-12-12T04:50:19.378Z,13.20
2018-12-12T04:52:47.519Z,14.10
2018-12-12T04:55:15.663Z,18.23
2018-12-12T04:57:44.864Z,13.50
2018-12-12T05:00:13.491Z,16.27
2018-12-12T05:02:42.125Z,19.27
2018-12-12T05:05:10.334Z,11.30
2018-12-12T05:07:38.487Z,11.30
2018-12-12T05:10:07.215Z,11.73
2018-12-12T05:12:35.396Z,10.58
2018-12-12T05:15:04.955Z,12.80
2018-12-12T05:17:33.086Z,15.63
2018-12-12T05:20:01.294Z,11.17
2018-12-12T05:22:29.454Z,14.17
2018-12-12T05:24:57.651Z,15.15
2018-12-12T05:27:25.781Z,17.87
2018-12-12T05:29:53.901Z,13.63
2018-12-12T05:32:22.050Z,10.20
2018-12-12T05:34:50.187Z,12.70
2018-12-12T05:37:18.333Z,13.50
2018-12-12T05:39:46.482Z,10.73
2018-12-12T05:42:14.668Z,15.30
2018-12-12T05:44:42.786Z,15.43
2018-12-12T05:47:11.099Z,11.70
2018-12-12T05:49:39.238Z,19.10
2018-12-12T05:52:07.397Z,15.87
2018-12-12T05:54:35.601Z,15.70
2018-12-12T05:57:03.831Z,24.93
2018-12-12T05:59:32.063Z,12.30
2018-12-12T06:02:00.218Z,14.23
2018-12-12T06:04:28.387Z,18.93
2018-12-12T06:06:56.623Z,15.38
2018-12-12T06:09:24.799Z,14.05
2018-12-12T06:11:52.950Z,17.00
2018-12-12T06:14:21.066Z,16.10
2018-12-12T06:16:49.197Z,13.88
2018-12-12T06:19:17.334Z,9.93
2018-12-12T06:21:45.525Z,14.80
2018-12-12T06:24:13.717Z,14.07
2018-12-12T06:26:41.935Z,22.40
2018-12-12T06:29:10.191Z,13.93
2018-12-12T06:31:38.387Z,19.37
2018-12-12T06:34:06.667Z,13.53
2018-12-12T06:36:34.848Z,10.17
2018-12-12T06:39:04.171Z,15.57
2018-12-12T06:41:32.403Z,7.00
2018-12-12T06:44:00.631Z,17.33
2018-12-12T06:46:28.922Z,11.60
2018-12-12T06:48:57.045Z,12.40
2018-12-12T06:51:25.204Z,12.30
2018-12-12T06:53:53.349Z,14.77
2018-12-12T06:56:21.465Z,9.40
2018-12-12T06:58:49.638Z,13.40
2018-12-12T07:01:17.965Z,18.27
2018-12-12T07:03:46.089Z,18.62
2018-12-12T07:06:14.225Z,17.43
2018-12-12T07:08:42.533Z,20.57
2018-12-12T07:11:10.685Z,19.70
2018-12-12T07:13:38.835Z,18.37
2018-12-12T07:16:07.057Z,22.53
2018-12-12T07:18:35.230Z,21.23
2018-12-12T07:21:03.545Z,18.40
2018-12-12T07:23:31.686Z,25.17
2018-12-12T07:25:59.829Z,20.50
2018-12-12T07:28:28.002Z,19.17
2018-12-12T07:30:56.177Z,9.87
2018-12-12T07:33:24.457Z,16.53
2018-12-12T07:35:59.220Z,20.00
2018-12-12T07:38:23.054Z,17.92
2018-12-12T07:40:51.185Z,21.53
2018-12-12T07:43:19.332Z,27.27
2018-12-12T07:45:47.501Z,17.50
2018-12-12T07:48:15.735Z,16.13
2018-12-12T07:50:44.118Z,32.93
2018-12-12T07:53:12.438Z,20.82
2018-12-12T07:55:40.661Z,28.20
2018-12-12T07:58:09.700Z,15.75
2018-12-12T08:00:37.830Z,34.70
2018-12-12T08:03:06.629Z,16.30
2018-12-12T08:05:35.005Z,18.87
2018-12-12T08:08:03.237Z,26.57
2018-12-12T08:10:31.465Z,14.60
2018-12-12T08:12:59.775Z,12.17
2018-12-12T08:15:27.929Z,15.88
2018-12-12T08:17:56.077Z,22.35
2018-12-12T08:20:24.403Z,15.18
2018-12-12T08:22:53.101Z,26.57
2018-12-12T08:25:21.317Z,20.40
2018-12-12T08:27:49.462Z,27.70
2018-12-12T08:30:17.629Z,14.13
2018-12-12T08:32:45.837Z,17.93
2018-12-12T08:35:14.068Z,14.00
2018-12-12T08:37:42.217Z,14.67
2018-12-12T08:40:11.257Z,12.50
2018-12-12T08:42:39.510Z,17.70
2018-12-12T08:45:07.823Z,16.23
2018-12-12T08:47:36.063Z,13.60
2018-12-12T08:50:04.958Z,22.82
2018-12-12T08:52:33.109Z,19.57
2018-12-12T08:55:01.247Z,14.23
2018-12-12T08:57:29.786Z,31.05
2018-12-12T08:59:57.919Z,26.60
2018-12-12T09:02:26.072Z,23.50
2018-12-12T09:04:54.221Z,12.03
2018-12-12T09:07:22.666Z,18.50
2018-12-12T09:09:50.813Z,15.10
2018-12-12T09:12:18.951Z,14.93
2018-12-12T09:14:47.159Z,14.07
2018-12-12T09:17:15.286Z,23.90
2018-12-12T09:19:43.541Z,15.67
2018-12-12T09:22:12.400Z,15.13
2018-12-12T09:24:40.540Z,17.97
2018-12-12T09:27:08.674Z,20.30
2018-12-12T09:29:36.832Z,18.20
2018-12-12T09:32:05.070Z,20.73
2018-12-12T09:34:33.361Z,24.17
2018-12-12T09:37:01.496Z,18.52
2018-12-12T09:39:29.633Z,23.40
2018-12-12T09:41:57.749Z,17.80
2018-12-12T09:44:26.075Z,19.42
2018-12-12T09:46:54.202Z,17.53
2018-12-12T09:49:22.343Z,21.73
2018-12-12T09:51:50.494Z,29.60
2018-12-12T09:54:18.718Z,22.17
2018-12-12T09:56:46.899Z,11.03
2018-12-12T09:59:15.030Z,21.57
2018-12-12T10:01:43.614Z,21.27
2018-12-12T10:04:11.750Z,19.10
2018-12-12T10:06:39.997Z,18.77
2018-12-12T10:09:08.571Z,19.70
2018-12-12T10:11:36.749Z,25.87
2018-12-12T10:14:04.913Z,25.40
2018-12-12T10:16:33.034Z,26.13
2018-12-12T10:19:01.242Z,16.10
2018-12-12T10:21:29.591Z,17.70
2018-12-12T10:23:57.912Z,18.40
2018-12-12T10:26:26.075Z,17.27
2018-12-12T10:28:55.245Z,17.03
2018-12-12T10:31:23.535Z,22.60
2018-12-12T10:33:51.750Z,27.00
2018-12-12T10:36:20.150Z,29.50
2018-12-12T10:38:48.326Z,23.37
2018-12-12T10:41:16.465Z,21.00
2018-12-12T10:43:45.015Z,17.48
2018-12-12T10:46:13.504Z,26.87
2018-12-12T10:48:41.652Z,23.20
2018-12-12T10:51:09.943Z,26.00
2018-12-12T10:53:38.171Z,20.92
2018-12-12T10:56:06.329Z,22.70
2018-12-12T10:58:34.475Z,29.30
2018-12-12T11:01:07.995Z,22.30
2018-12-12T11:03:44.178Z,16.50
2018-12-12T11:06:11.438Z,18.40
2018-12-12T11:08:39.630Z,25.00
2018-12-12T11:11:08.162Z,18.07
2018-12-12T11:13:36.318Z,21.53
2018-12-12T11:16:05.239Z,21.33
2018-12-12T11:18:33.615Z,20.80
2018-12-12T11:21:01.836Z,22.90
2018-12-12T11:23:29.984Z,25.50
2018-12-12T11:25:58.195Z,22.40
2018-12-12T11:28:26.503Z,17.50
2018-12-12T11:30:54.980Z,24.23
2018-12-12T11:33:23.184Z,23.50
2018-12-12T11:35:51.490Z,19.95
2018-12-12T11:38:19.674Z,24.60
2018-12-12T11:40:47.811Z,24.33
2018-12-12T11:43:16.206Z,19.67
2018-12-12T11:45:44.426Z,16.30
2018-12-12T11:48:12.698Z,14.60
2018-12-12T11:50:40.865Z,15.80
2018-12-12T11:53:09.063Z,18.62
2018-12-12T11:55:37.218Z,18.77
2018-12-12T11:58:05.526Z,18.87
2018-12-12T12:00:34.014Z,13.90
2018-12-12T12:03:02.190Z,20.63
2018-12-12T12:05:30.322Z,14.33
2018-12-12T12:07:58.469Z,18.67
2018-12-12T12:10:26.601Z,20.03
2018-12-12T12:12:54.743Z,20.23
2018-12-12T12:15:23.339Z,16.80
2018-12-12T12:17:51.483Z,16.57
2018-12-12T12:20:19.637Z,18.63
2018-12-12T12:22:47.784Z,17.17
2018-12-12T12:25:15.931Z,14.25
2018-12-12T12:27:44.070Z,12.35
2018-12-12T12:30:12.385Z,19.77
2018-12-12T12:32:40.644Z,15.43
2018-12-12T12:35:08.965Z,14.83
2018-12-12T12:37:37.106Z,20.90
2018-12-12T12:40:06.200Z,15.80
2018-12-12T12:42:34.421Z,17.20
2018-12-12T12:45:02.759Z,22.50
2018-12-12T12:47:30.929Z,20.13
2018-12-12T12:49:59.116Z,19.20
2018-12-12T12:52:27.366Z,13.40
2018-12-12T12:54:55.585Z,15.83
2018-12-12T12:57:23.694Z,14.90
2018-12-12T12:59:51.808Z,19.20
2018-12-12T13:02:20.605Z,15.75
2018-12-12T13:04:48.791Z,18.90
2018-12-12T13:07:16.913Z,19.83
2018-12-12T13:09:45.043Z,17.70
2018-12-12T13:12:13.474Z,16.03
2018-12-12T13:14:41.894Z,12.88
2018-12-12T13:17:10.053Z,14.77
2018-12-12T13:19:38.425Z,15.27
2018-12-12T13:22:06.645Z,12.47
2018-12-12T13:24:34.790Z,16.10
2018-12-12T13:27:03.143Z,13.13
2018-12-12T13:29:31.290Z,14.10
2018-12-12T13:31:59.519Z,16.02
2018-12-12T13:34:27.682Z,11.00
2018-12-12T13:36:55.851Z,11.38
2018-12-12T13:39:24.044Z,11.73
2018-12-12T13:41:52.213Z,10.67
2018-12-12T13:44:20.371Z,14.20
2018-12-12T13:46:48.494Z,13.10
2018-12-12T13:49:16.658Z,14.70
2018-12-12T13:51:44.887Z,15.70
2018-12-12T13:54:13.088Z,18.17
2018-12-12T13:56:41.240Z,14.60
2018-12-12T13:59:09.408Z,15.40
2018-12-12T14:01:37.713Z,17.52
2018-12-12T14:04:05.924Z,15.13
2018-12-12T14:06:34.244Z,12.20
2018-12-12T14:09:02.757Z,13.77
2018-12-12T14:11:31.058Z,11.57
2018-12-12T14:13:59.209Z,14.73
2018-12-12T14:16:34.317Z,14.03
2018-12-12T14:19:02.492Z,15.90
2018-12-12T14:21:30.666Z,12.33
2018-12-12T14:23:58.839Z,19.13
2018-12-12T14:26:27.033Z,12.87
2018-12-12T14:28:55.205Z,20.57
2018-12-12T14:31:23.941Z,12.68
2018-12-12T14:33:52.096Z,25.73
2018-12-12T14:36:20.407Z,15.77
2018-12-12T14:38:48.608Z,14.57
2018-12-12T14:41:16.758Z,21.67
2018-12-12T14:43:44.865Z,14.80
2018-12-12T14:46:13.038Z,14.57
2018-12-12T14:48:41.304Z,21.40
2018-12-12T14:51:09.657Z,21.50
2018-12-12T14:53:37.798Z,15.17
2018-12-12T14:56:06.113Z,14.80
2018-12-12T14:58:34.286Z,30.20
2018-12-12T15:01:02.458Z,20.30
2018-12-12T15:03:30.639Z,19.73
2018-12-12T15:05:58.835Z,18.83
2018-12-12T15:08:27.341Z,10.00
2018-12-12T15:10:55.814Z,15.25
2018-12-12T15:13:23.990Z,17.60
2018-12-12T15:15:52.162Z,10.47
2018-12-12T15:18:20.326Z,19.97
2018-12-12T15:20:48.570Z,14.10
2018-12-12T15:23:16.754Z,13.50
2018-12-12T15:25:44.932Z,13.57
2018-12-12T15:28:13.121Z,20.20
2018-12-12T15:30:41.342Z,21.00
2018-12-12T15:33:09.482Z,13.87
2018-12-12T15:35:37.661Z,18.87
2018-12-12T15:38:05.859Z,16.10
2018-12-12T15:40:34.237Z,16.53
2018-12-12T15:43:02.421Z,13.07
2018-12-12T15:45:30.547Z,21.03
2018-12-12T15:47:58.694Z,15.40
2018-12-12T15:50:27.490Z,15.80
2018-12-12T15:52:55.605Z,18.97
2018-12-12T15:55:23.888Z,17.70
2018-12-12T15:57:52.113Z,17.07
2018-12-12T16:00:20.841Z,18.03
2018-12-12T16:02:48.979Z,15.37
2018-12-12T16:05:17.126Z,14.03
2018-12-12T16:07:45.591Z,19.67
2018-12-12T16:10:13.888Z,20.70
2018-12-12T16:12:42.030Z,16.47
2018-12-12T16:15:10.337Z,17.93
2018-12-12T16:17:38.478Z,18.60
2018-12-12T16:20:07.358Z,15.35
2018-12-12T16:22:35.553Z,20.23
2018-12-12T16:25:03.980Z,17.53
2018-12-12T16:27:32.294Z,19.73
2018-12-12T16:30:00.433Z,19.67
2018-12-12T16:32:29.337Z,19.23
2018-12-12T16:34:57.509Z,20.90
2018-12-12T16:37:25.710Z,17.93
2018-12-12T16:39:53.855Z,19.67
2018-12-12T16:42:22.949Z,16.57
2018-12-12T16:44:52.063Z,17.97
2018-12-12T16:47:20.336Z,21.43
2018-12-12T16:49:48.483Z,19.27
2018-12-12T16:52:16.613Z,21.90
2018-12-12T16:54:44.749Z,20.47
2018-12-12T16:57:12.952Z,21.67
2018-12-12T16:59:41.180Z,14.40
2018-12-12T17:02:09.433Z,20.73
2018-12-12T17:04:37.584Z,23.12
2018-12-12T17:07:05.799Z,14.42
2018-12-12T17:09:33.921Z,21.53
2018-12-12T17:12:02.144Z,20.90
2018-12-12T17:14:31.280Z,22.02
2018-12-12T17:16:59.439Z,22.30
2018-12-12T17:19:27.610Z,19.00
2018-12-12T17:21:55.840Z,21.27
2018-12-12T17:24:23.984Z,17.63
2018-12-12T17:26:52.645Z,17.40
2018-12-12T17:29:20.816Z,19.02
2018-12-12T17:31:49.020Z,17.50
2018-12-12T17:34:17.169Z,18.32
2018-12-12T17:36:45.298Z,17.43
2018-12-12T17:39:13.453Z,19.40
2018-12-12T17:41:41.590Z,14.57
2018-12-12T17:44:09.737Z,15.23
2018-12-12T17:46:37.880Z,23.23
2018-12-12T17:49:06.095Z,21.90
2018-12-12T17:51:34.230Z,25.57
2018-12-12T17:54:02.507Z,14.33
2018-12-12T17:56:30.626Z,15.07
2018-12-12T17:58:58.753Z,15.40
2018-12-12T18:01:26.969Z,17.13
2018-12-12T18:03:55.122Z,17.27
2018-12-12T18:06:23.266Z,12.10
2018-12-12T18:08:51.741Z,10.23
2018-12-12T18:11:19.886Z,15.65
2018-12-12T18:13:48.017Z,17.47
2018-12-12T18:16:16.133Z,16.80
2018-12-12T18:18:44.856Z,12.87
2018-12-12T18:21:13.204Z,16.63
2018-12-12T18:23:41.351Z,7.93
2018-12-12T18:26:09.653Z,14.33
2018-12-12T18:28:37.859Z,12.80
2018-12-12T18:31:06.079Z,9.47
2018-12-12T18:33:34.645Z,9.70
2018-12-12T18:36:02.766Z,10.77
2018-12-12T18:38:30.899Z,9.07
2018-12-12T18:40:59.081Z,6.57
2018-12-12T18:43:27.308Z,10.70
2018-12-12T18:45:55.438Z,12.77
2018-12-12T18:48:23.663Z,13.03
2018-12-12T18:50:51.828Z,10.13
2018-12-12T18:53:19.953Z,18.17
2018-12-12T18:55:48.083Z,8.48
2018-12-12T18:58:16.229Z,7.87
2018-12-12T19:00:44.490Z,8.23
2018-12-12T19:03:12.685Z,9.13
2018-12-12T19:05:40.902Z,8.97
2018-12-12T19:08:09.059Z,12.17
2018-12-12T19:10:37.195Z,11.03
2018-12-12T19:13:05.818Z,11.20
2018-12-12T19:15:33.937Z,9.30
2018-12-12T19:18:02.065Z,12.90
2018-12-12T19:20:30.181Z,11.63
2018-12-12T19:22:58.346Z,9.90
2018-12-12T19:25:26.488Z,14.83
2018-12-12T19:27:54.674Z,11.40
2018-12-12T19:30:22.897Z,13.10
2018-12-12T19:32:51.220Z,7.90
2018-12-12T19:35:19.519Z,8.60
2018-12-12T19:37:48.000Z,9.67
2018-12-12T19:40:16.143Z,6.30
2018-12-12T19:42:44.305Z,10.32
2018-12-12T19:45:12.497Z,5.95
2018-12-12T19:47:40.674Z,8.63
2018-12-12T19:50:09.185Z,9.60
2018-12-12T19:52:37.546Z,10.00
2018-12-12T19:55:05.921Z,8.20
2018-12-12T19:57:34.087Z,7.30
2018-12-12T20:00:02.386Z,7.73
2018-12-12T20:02:30.521Z,7.20
2018-12-12T20:04:58.679Z,7.80
2018-12-12T20:07:26.845Z,10.10
2018-12-12T20:09:55.002Z,7.30
2018-12-12T20:12:23.203Z,6.55
2018-12-12T20:14:51.407Z,5.00
2018-12-12T20:17:19.630Z,7.23
2018-12-12T20:19:47.763Z,7.60
2018-12-12T20:22:16.004Z,7.37
2018-12-12T20:24:44.233Z,11.23
2018-12-12T20:27:12.427Z,10.47
2018-12-12T20:29:40.597Z,8.90
2018-12-12T20:32:08.745Z,8.90
2018-12-12T20:34:36.919Z,11.18
2018-12-12T20:37:05.057Z,5.63
2018-12-12T20:39:33.185Z,11.20
2018-12-12T20:42:01.358Z,7.33
2018-12-12T20:44:29.527Z,7.20
2018-12-12T20:46:57.698Z,7.60
2018-12-12T20:49:25.946Z,8.13
2018-12-12T20:51:54.088Z,11.30
2018-12-12T20:54:22.322Z,7.50
2018-12-12T20:56:51.719Z,7.75
2018-12-12T20:59:19.950Z,7.47
2018-12-12T21:01:48.182Z,6.00
2018-12-12T21:04:16.557Z,6.83
2018-12-12T21:06:44.732Z,9.23
2018-12-12T21:09:12.903Z,9.37
2018-12-12T21:11:41.046Z,8.73
2018-12-12T21:14:09.203Z,6.27
2018-12-12T21:16:37.314Z,7.10
2018-12-12T21:19:05.473Z,8.67
2018-12-12T21:21:33.601Z,7.23
2018-12-12T21:24:01.780Z,8.73
2018-12-12T21:26:29.912Z,11.30
2018-12-12T21:28:58.109Z,5.30
2018-12-12T21:31:26.262Z,6.53
2018-12-12T21:33:54.522Z,8.33
2018-12-12T21:36:22.718Z,9.55
2018-12-12T21:38:50.845Z,8.53
2018-12-12T21:41:19.103Z,6.20
2018-12-12T21:43:47.236Z,7.37
2018-12-12T21:46:15.386Z,13.40
2018-12-12T21:48:43.891Z,6.83
2018-12-12T21:51:12.331Z,9.43
2018-12-12T21:53:40.563Z,9.03
2018-12-12T21:56:08.841Z,6.40
2018-12-12T21:58:36.969Z,8.50
2018-12-12T22:02:40.893Z,8.10
2018-12-12T22:05:09.123Z,10.37
2018-12-12T22:07:37.287Z,13.80
2018-12-12T22:10:06.443Z,6.20
2018-12-12T22:12:34.623Z,8.97
2018-12-12T22:15:02.959Z,7.83
2018-12-12T22:17:31.092Z,8.17
2018-12-12T22:19:59.369Z,13.23
2018-12-12T22:22:27.502Z,8.40
2018-12-12T22:24:55.679Z,8.10
2018-12-12T22:27:23.909Z,10.20
2018-12-12T22:29:52.165Z,9.13
2018-12-12T22:32:20.321Z,7.60
2018-12-12T22:34:48.478Z,9.80
2018-12-12T22:37:16.613Z,6.63
2018-12-12T22:39:44.752Z,8.50
2018-12-12T22:42:13.043Z,7.63
2018-12-12T22:44:42.009Z,12.98
2018-12-12T22:47:10.222Z,9.53
2018-12-12T22:49:38.391Z,7.10
2018-12-12T22:52:06.536Z,9.00
2018-12-12T22:54:34.794Z,7.43
2018-12-12T22:57:02.911Z,9.30
2018-12-12T22:59:31.098Z,9.23
2018-12-12T23:01:59.345Z,8.80
2018-12-12T23:04:27.459Z,12.20
2018-12-12T23:06:55.665Z,6.10
2018-12-12T23:09:23.768Z,9.87
2018-12-12T23:11:51.938Z,10.73
2018-12-12T23:14:20.064Z,7.13
2018-12-12T23:16:48.203Z,10.13
2018-12-12T23:19:16.407Z,8.53
2018-12-12T23:21:44.541Z,9.00
2018-12-12T23:24:13.708Z,8.40
2018-12-12T23:26:42.005Z,7.10
2018-12-12T23:29:10.126Z,7.65
2018-12-12T23:31:38.443Z,12.93
2018-12-12T23:34:06.632Z,5.83
2018-12-12T23:36:34.932Z,7.60
2018-12-12T23:39:03.545Z,10.53
2018-12-12T23:41:31.690Z,9.48
2018-12-12T23:43:59.878Z,9.03
2018-12-12T23:46:28.089Z,9.38
2018-12-12T23:48:56.209Z,10.70
2018-12-12T23:51:24.370Z,6.20
2018-12-12T23:53:52.474Z,11.00
2018-12-12T23:56:20.609Z,7.30
2018-12-12T23:58:48.734Z,10.30
